createdAt,value
2023-05-12T00:00:10.935Z,13.61
2023-05-12T00:02:41.181Z,13.56
2023-05-12T00:05:08.440Z,13.49
2023-05-12T00:07:35.156Z,13.47
2023-05-12T00:10:02.240Z,13.47
2023-05-12T00:12:28.980Z,13.49
2023-05-12T00:14:55.699Z,13.44
2023-05-12T00:17:22.540Z,13.41
2023-05-12T00:19:50.167Z,13.55
2023-05-12T00:22:17.195Z,13.46
2023-05-12T00:24:44.741Z,13.35
2023-05-12T00:27:13.625Z,13.29
2023-05-12T00:29:40.424Z,13.19
2023-05-12T00:32:08.310Z,13.21
2023-05-12T00:34:35.074Z,13.09
2023-05-12T00:37:01.732Z,13.05
2023-05-12T00:39:28.448Z,13.04
2023-05-12T00:41:59.272Z,13.07
2023-05-12T00:44:26.014Z,13.07
2023-05-12T00:46:53.061Z,13.06
2023-05-12T00:49:20.362Z,13.13
2023-05-12T00:51:47.041Z,13.07
2023-05-12T00:54:13.883Z,13.07
2023-05-12T00:56:41.062Z,12.98
2023-05-12T00:59:08.226Z,12.95
2023-05-12T01:01:35.646Z,12.92
2023-05-12T01:04:03.210Z,12.87
2023-05-12T01:06:56.578Z,12.95
2023-05-12T01:09:23.565Z,13.22
2023-05-12T01:11:50.329Z,13.39
2023-05-12T01:14:17.035Z,13.18
2023-05-12T01:16:51.639Z,13.07
2023-05-12T01:19:44.038Z,12.96
2023-05-12T01:22:12.380Z,12.95
2023-05-12T01:24:46.910Z,13.12
2023-05-12T01:27:15.757Z,13.18
2023-05-12T01:29:44.445Z,13.18
2023-05-12T01:32:11.389Z,13.18
2023-05-12T01:34:38.119Z,13.15
2023-05-12T01:37:04.988Z,13.09
2023-05-12T01:39:31.639Z,13.15
2023-05-12T01:41:58.351Z,13.16
2023-05-12T01:44:25.043Z,13.19
2023-05-12T01:46:53.964Z,13.24
2023-05-12T01:49:20.723Z,13.31
2023-05-12T01:51:47.370Z,13.45
2023-05-12T01:54:14.110Z,13.44
2023-05-12T01:56:41.153Z,13.51
2023-05-12T01:59:08.331Z,13.31
2023-05-12T02:01:35.013Z,13.43
2023-05-12T02:04:03.909Z,13.37
2023-05-12T02:06:31.486Z,13.39
2023-05-12T02:08:58.307Z,13.38
2023-05-12T02:11:25.021Z,13.31
2023-05-12T02:13:52.372Z,13.44
2023-05-12T02:16:19.180Z,13.42
2023-05-12T02:18:45.938Z,13.63
2023-05-12T02:21:12.626Z,13.54
2023-05-12T02:23:39.290Z,13.57
2023-05-12T02:26:06.306Z,13.79
2023-05-12T02:28:36.096Z,13.98
2023-05-12T02:31:03.431Z,13.72
2023-05-12T02:33:30.442Z,13.81
2023-05-12T02:35:57.055Z,13.80
2023-05-12T02:38:23.754Z,13.79
2023-05-12T02:40:50.351Z,13.72
2023-05-12T02:43:17.027Z,13.70
2023-05-12T02:45:43.968Z,13.66
2023-05-12T02:48:11.032Z,13.69
2023-05-12T02:50:37.836Z,13.66
2023-05-12T02:53:04.604Z,13.63
2023-05-12T02:55:31.417Z,13.59
2023-05-12T02:57:58.102Z,13.71
2023-05-12T03:00:24.778Z,13.77
2023-05-12T03:02:51.741Z,13.67
2023-05-12T03:05:18.553Z,13.70
2023-05-12T03:07:45.333Z,13.80
2023-05-12T03:10:12.013Z,13.72
2023-05-12T03:12:38.758Z,13.66
2023-05-12T03:15:08.973Z,13.58
2023-05-12T03:17:36.632Z,13.48
2023-05-12T03:20:04.538Z,13.38
2023-05-12T03:22:31.304Z,13.22
2023-05-12T03:24:57.987Z,13.15
2023-05-12T03:27:24.698Z,13.10
2023-05-12T03:29:51.847Z,13.12
2023-05-12T03:32:18.510Z,13.08
2023-05-12T03:34:45.228Z,13.03
2023-05-12T03:37:16.386Z,13.10
2023-05-12T03:39:43.375Z,13.05
2023-05-12T03:42:10.121Z,13.06
2023-05-12T03:44:39.406Z,13.07
2023-05-12T03:47:06.157Z,12.99
2023-05-12T03:49:33.270Z,12.90
2023-05-12T03:51:59.956Z,12.87
2023-05-12T03:54:26.737Z,12.85
2023-05-12T03:56:54.011Z,12.87
2023-05-12T03:59:21.856Z,12.85
2023-05-12T04:01:48.518Z,12.94
2023-05-12T04:04:18.320Z,12.99
2023-05-12T04:06:45.109Z,12.99
2023-05-12T04:09:12.038Z,13.00
2023-05-12T04:11:38.699Z,13.11
2023-05-12T04:14:05.404Z,13.19
2023-05-12T04:16:32.604Z,13.35
2023-05-12T04:18:59.439Z,13.43
2023-05-12T04:21:26.283Z,13.44
2023-05-12T04:23:53.007Z,13.51
2023-05-12T04:26:20.011Z,13.51
2023-05-12T04:28:47.809Z,13.61
2023-05-12T04:31:14.481Z,13.61
2023-05-12T04:33:41.191Z,13.82
2023-05-12T04:36:08.049Z,13.81
2023-05-12T04:38:34.822Z,13.77
2023-05-12T04:41:01.471Z,13.84
2023-05-12T04:46:00.067Z,13.87
2023-05-12T04:48:28.622Z,14.06
2023-05-12T04:50:55.642Z,14.05
2023-05-12T04:53:22.360Z,13.95
2023-05-12T04:55:50.081Z,14.20
2023-05-12T04:58:16.863Z,14.30
2023-05-12T05:00:43.971Z,14.43
2023-05-12T05:03:11.013Z,14.47
2023-05-12T05:05:37.909Z,14.47
2023-05-12T05:08:04.628Z,14.60
2023-05-12T05:10:31.289Z,14.70
2023-05-12T05:12:58.132Z,14.72
2023-05-12T05:15:25.084Z,14.84
2023-05-12T05:17:51.907Z,14.82
2023-05-12T05:20:19.687Z,14.93
2023-05-12T05:22:46.576Z,15.08
2023-05-12T05:25:14.181Z,15.21
2023-05-12T05:27:41.187Z,15.30
2023-05-12T05:30:09.266Z,15.39
2023-05-12T05:32:37.196Z,15.49
2023-05-12T05:35:04.099Z,15.51
2023-05-12T05:37:33.633Z,15.62
2023-05-12T05:40:00.280Z,15.64
2023-05-12T05:42:27.069Z,15.70
2023-05-12T05:44:55.733Z,15.72
2023-05-12T05:47:22.451Z,15.72
2023-05-12T05:49:49.154Z,15.89
2023-05-12T05:52:15.840Z,15.89
2023-05-12T05:54:42.554Z,15.92
2023-05-12T05:57:09.190Z,16.00
2023-05-12T05:59:36.032Z,16.20
2023-05-12T06:02:03.757Z,16.28
2023-05-12T06:04:30.658Z,16.36
2023-05-12T06:06:57.396Z,16.33
2023-05-12T06:09:24.051Z,16.23
2023-05-12T06:11:51.077Z,16.20
2023-05-12T06:14:17.784Z,16.35
2023-05-12T06:16:44.532Z,16.49
2023-05-12T06:19:12.258Z,16.40
2023-05-12T06:21:39.143Z,16.24
2023-05-12T06:24:06.047Z,16.58
2023-05-12T06:26:32.706Z,17.72
2023-05-12T06:29:00.603Z,18.54
2023-05-12T06:31:27.299Z,18.11
2023-05-12T06:33:54.031Z,17.55
2023-05-12T06:36:20.692Z,17.26
2023-05-12T06:38:47.416Z,17.23
2023-05-12T06:41:14.252Z,17.17
2023-05-12T06:43:41.095Z,17.08
2023-05-12T06:46:08.630Z,16.91
2023-05-12T06:48:35.377Z,17.29
2023-05-12T06:51:02.102Z,17.46
2023-05-12T06:53:29.038Z,17.21
2023-05-12T06:55:55.800Z,17.28
2023-05-12T06:58:22.613Z,17.41
2023-05-12T07:00:49.412Z,17.74
2023-05-12T07:03:16.553Z,17.70
2023-05-12T07:05:43.400Z,18.16
2023-05-12T07:08:10.039Z,18.49
2023-05-12T07:10:38.020Z,19.17
2023-05-12T07:13:04.788Z,18.62
2023-05-12T07:15:32.831Z,18.70
2023-05-12T07:18:00.113Z,18.74
2023-05-12T07:20:27.384Z,18.45
2023-05-12T07:22:55.095Z,18.51
2023-05-12T07:25:22.509Z,18.58
2023-05-12T07:27:50.470Z,18.73
2023-05-12T07:30:17.521Z,19.24
2023-05-12T07:32:44.396Z,19.74
2023-05-12T07:35:11.232Z,20.52
2023-05-12T07:37:38.301Z,20.32
2023-05-12T07:40:05.782Z,20.06
2023-05-12T07:42:32.426Z,20.69
2023-05-12T07:44:59.111Z,20.27
2023-05-12T07:47:26.071Z,20.42
2023-05-12T07:49:52.742Z,20.40
2023-05-12T07:52:19.392Z,20.76
2023-05-12T07:54:46.135Z,20.75
2023-05-12T07:57:12.897Z,20.59
2023-05-12T07:59:40.279Z,20.90
2023-05-12T08:02:07.360Z,20.90
2023-05-12T08:04:34.185Z,20.88
2023-05-12T08:07:01.222Z,21.23
2023-05-12T08:09:27.896Z,21.47
2023-05-12T08:11:54.689Z,21.45
2023-05-12T08:14:22.770Z,21.20
2023-05-12T08:16:49.660Z,21.34
2023-05-12T08:19:16.390Z,21.19
2023-05-12T08:21:43.175Z,21.13
2023-05-12T08:24:09.947Z,21.05
2023-05-12T08:26:36.639Z,21.16
2023-05-12T08:29:04.761Z,21.34
2023-05-12T08:31:32.208Z,21.27
2023-05-12T08:34:09.054Z,21.30
2023-05-12T08:36:38.140Z,21.51
2023-05-12T08:39:05.048Z,21.59
2023-05-12T08:42:25.661Z,21.55
2023-05-12T08:44:53.817Z,21.61
2023-05-12T08:47:22.998Z,21.81
2023-05-12T08:50:01.564Z,22.02
2023-05-12T08:52:32.056Z,22.22
2023-05-12T08:55:00.105Z,22.13
2023-05-12T08:57:29.625Z,22.08
2023-05-12T08:59:59.475Z,22.32
2023-05-12T09:02:37.767Z,22.26
2023-05-12T09:05:11.370Z,22.28
2023-05-12T09:07:46.694Z,22.33
2023-05-12T09:10:32.733Z,22.70
2023-05-12T09:13:28.724Z,22.65
2023-05-12T09:15:58.960Z,21.98
2023-05-12T09:18:25.926Z,21.91
2023-05-12T09:20:52.571Z,22.09
2023-05-12T09:23:21.177Z,21.89
2023-05-12T09:26:00.301Z,21.74
2023-05-12T09:28:37.477Z,21.85
2023-05-12T09:31:25.029Z,22.02
2023-05-12T09:33:52.406Z,21.83
2023-05-12T09:36:23.869Z,21.90
2023-05-12T09:39:19.993Z,21.72
2023-05-12T09:41:47.301Z,21.68
2023-05-12T09:44:18.844Z,21.68
2023-05-12T09:46:46.263Z,21.76
2023-05-12T09:49:13.124Z,21.77
2023-05-12T09:51:40.892Z,21.80
2023-05-12T09:54:07.945Z,21.78
2023-05-12T09:56:37.879Z,21.76
2023-05-12T09:59:05.574Z,22.02
2023-05-12T10:01:34.718Z,22.18
2023-05-12T10:04:02.373Z,21.99
2023-05-12T10:06:34.198Z,22.31
2023-05-12T10:09:19.440Z,22.24
2023-05-12T10:11:47.641Z,22.21
2023-05-12T10:14:14.413Z,22.13
2023-05-12T10:16:41.694Z,22.04
2023-05-12T10:19:10.468Z,22.16
2023-05-12T10:21:39.681Z,22.08
2023-05-12T10:24:07.674Z,22.05
2023-05-12T10:26:37.741Z,22.55
2023-05-12T10:29:04.539Z,22.40
2023-05-12T10:31:32.053Z,22.48
2023-05-12T10:34:00.363Z,22.49
2023-05-12T10:36:27.259Z,22.42
2023-05-12T10:38:54.839Z,22.24
2023-05-12T10:41:35.046Z,22.14
2023-05-12T10:44:02.365Z,22.16
2023-05-12T10:46:30.366Z,21.77
2023-05-12T10:49:06.543Z,21.83
2023-05-12T10:51:37.704Z,22.10
2023-05-12T10:54:11.380Z,22.19
2023-05-12T10:56:41.076Z,22.34
2023-05-12T10:59:24.990Z,22.26
2023-05-12T11:02:17.097Z,22.02
2023-05-12T11:04:53.565Z,22.06
2023-05-12T11:07:27.816Z,22.42
2023-05-12T11:09:59.159Z,22.41
2023-05-12T11:12:32.520Z,22.22
2023-05-12T11:15:03.904Z,22.46
2023-05-12T11:17:30.872Z,22.69
2023-05-12T11:19:58.578Z,22.70
2023-05-12T11:22:25.451Z,22.47
2023-05-12T11:24:53.152Z,22.44
2023-05-12T11:27:21.272Z,22.39
2023-05-12T11:30:02.747Z,22.09
2023-05-12T11:32:30.179Z,22.20
2023-05-12T11:35:09.754Z,22.10
2023-05-12T11:37:39.239Z,22.26
2023-05-12T11:40:16.833Z,22.26
2023-05-12T11:42:48.346Z,22.45
2023-05-12T11:45:23.339Z,22.48
2023-05-12T11:47:50.338Z,22.84
2023-05-12T11:50:22.922Z,22.69
2023-05-12T11:52:51.006Z,22.68
2023-05-12T11:55:23.636Z,22.42
2023-05-12T11:58:03.175Z,22.37
2023-05-12T12:00:34.933Z,22.12
2023-05-12T12:03:09.598Z,22.02
2023-05-12T12:05:36.560Z,22.06
2023-05-12T12:08:14.803Z,22.19
2023-05-12T12:10:45.842Z,22.44
2023-05-12T12:13:23.736Z,22.41
2023-05-12T12:15:51.268Z,22.57
2023-05-12T12:18:19.132Z,22.01
2023-05-12T12:20:47.348Z,22.02
2023-05-12T12:23:14.070Z,22.32
2023-05-12T12:25:40.823Z,22.33
2023-05-12T12:28:08.240Z,22.11
2023-05-12T12:30:34.963Z,22.14
2023-05-12T12:33:01.704Z,22.25
2023-05-12T12:35:28.381Z,22.35
2023-05-12T12:37:55.448Z,22.14
2023-05-12T12:40:22.214Z,22.22
2023-05-12T12:42:49.057Z,21.88
2023-05-12T12:45:16.988Z,21.82
2023-05-12T12:47:45.248Z,21.85
2023-05-12T12:50:11.987Z,21.88
2023-05-12T12:52:38.836Z,21.93
2023-05-12T12:55:06.708Z,21.87
2023-05-12T12:57:33.338Z,22.15
2023-05-12T13:00:00.049Z,22.12
2023-05-12T13:02:27.169Z,22.02
2023-05-12T13:04:56.152Z,22.08
2023-05-12T13:07:22.828Z,22.11
2023-05-12T13:09:49.520Z,22.33
2023-05-12T13:12:16.154Z,21.95
2023-05-12T13:14:42.894Z,21.96
2023-05-12T13:17:09.836Z,22.04
2023-05-12T13:19:38.017Z,21.84
2023-05-12T13:22:05.503Z,21.81
2023-05-12T13:24:32.255Z,21.93
2023-05-12T13:26:59.092Z,21.93
2023-05-12T13:29:25.767Z,22.24
2023-05-12T13:31:52.512Z,22.34
2023-05-12T13:34:19.427Z,22.02
2023-05-12T13:36:46.071Z,21.83
2023-05-12T13:39:12.792Z,21.93
2023-05-12T13:41:39.482Z,21.50
2023-05-12T13:44:06.262Z,21.26
2023-05-12T13:46:36.131Z,21.22
2023-05-12T13:49:03.124Z,21.41
2023-05-12T13:51:29.864Z,21.66
2023-05-12T13:53:56.630Z,21.74
2023-05-12T13:56:24.261Z,21.96
2023-05-12T13:58:50.852Z,21.45
2023-05-12T14:01:17.604Z,21.46
2023-05-12T14:03:44.302Z,21.56
2023-05-12T14:06:12.535Z,21.57
2023-05-12T14:08:40.135Z,21.67
2023-05-12T14:11:06.792Z,21.59
2023-05-12T14:13:33.651Z,21.48
2023-05-12T14:16:00.453Z,21.60
2023-05-12T14:18:27.209Z,21.35
2023-05-12T14:20:54.044Z,21.33
2023-05-12T14:23:20.836Z,21.50
2023-05-12T14:25:47.510Z,21.51
2023-05-12T14:28:14.349Z,21.26
2023-05-12T14:30:41.788Z,21.30
2023-05-12T14:33:08.674Z,21.32
2023-05-12T14:35:35.558Z,21.13
2023-05-12T14:38:02.270Z,21.13
2023-05-12T14:40:29.013Z,21.23
2023-05-12T14:42:55.756Z,21.33
2023-05-12T14:45:22.707Z,21.24
2023-05-12T14:47:49.709Z,21.13
2023-05-12T14:50:18.312Z,21.45
2023-05-12T14:52:47.703Z,21.46
2023-05-12T14:55:16.988Z,21.27
2023-05-12T14:57:48.024Z,21.09
2023-05-12T15:00:15.443Z,21.19
2023-05-12T15:02:43.371Z,21.35
2023-05-12T15:05:11.556Z,21.34
2023-05-12T15:07:38.305Z,21.33
2023-05-12T15:10:06.073Z,21.21
2023-05-12T15:12:33.876Z,21.06
2023-05-12T15:15:05.308Z,21.03
2023-05-12T15:17:32.365Z,21.06
2023-05-12T15:19:59.315Z,21.14
2023-05-12T15:22:26.288Z,21.28
2023-05-12T15:24:52.982Z,21.35
2023-05-12T15:27:19.689Z,21.09
2023-05-12T15:29:46.442Z,21.13
2023-05-12T15:32:13.059Z,21.00
2023-05-12T15:34:39.767Z,21.10
2023-05-12T15:37:06.747Z,20.93
2023-05-12T15:39:33.519Z,20.82
2023-05-12T15:42:01.257Z,20.97
2023-05-12T15:44:28.032Z,21.12
2023-05-12T15:46:55.034Z,20.90
2023-05-12T15:49:22.017Z,20.90
2023-05-12T15:51:48.924Z,20.81
2023-05-12T15:54:15.895Z,20.83
2023-05-12T15:56:43.072Z,20.69
2023-05-12T15:59:12.078Z,20.80
2023-05-12T16:01:38.826Z,20.74
2023-05-12T16:04:05.632Z,20.56
2023-05-12T16:06:32.635Z,20.62
2023-05-12T16:08:59.367Z,20.53
2023-05-12T16:11:26.097Z,20.39
2023-05-12T16:13:53.317Z,20.32
2023-05-12T16:16:20.325Z,20.47
2023-05-12T16:18:47.395Z,20.35
2023-05-12T16:21:14.150Z,20.24
2023-05-12T16:23:40.881Z,20.21
2023-05-12T16:26:07.644Z,20.54
2023-05-12T16:28:34.731Z,20.31
2023-05-12T16:31:04.846Z,20.31
2023-05-12T16:33:31.527Z,20.35
2023-05-12T16:35:58.206Z,20.26
2023-05-12T16:38:24.860Z,20.14
2023-05-12T16:40:51.494Z,20.00
2023-05-12T16:43:18.276Z,20.00
2023-05-12T16:45:44.995Z,19.95
2023-05-12T16:48:11.679Z,19.74
2023-05-12T16:50:38.379Z,19.82
2023-05-12T16:53:05.103Z,19.76
2023-05-12T16:55:32.055Z,19.67
2023-05-12T16:57:58.857Z,19.78
2023-05-12T17:00:26.031Z,19.81
2023-05-12T17:02:53.330Z,19.74
2023-05-12T17:05:20.280Z,19.62
2023-05-12T17:07:47.156Z,19.76
2023-05-12T17:10:13.929Z,19.56
2023-05-12T17:12:40.603Z,19.51
2023-05-12T17:15:08.619Z,19.24
2023-05-12T17:17:35.905Z,19.36
2023-05-12T17:20:03.053Z,19.25
2023-05-12T17:22:31.979Z,19.20
2023-05-12T17:24:58.652Z,19.24
2023-05-12T17:27:25.770Z,18.89
2023-05-12T17:29:52.461Z,18.84
2023-05-12T17:32:19.201Z,18.79
2023-05-12T17:34:49.873Z,18.80
2023-05-12T17:37:16.756Z,18.85
2023-05-12T17:39:44.433Z,18.75
2023-05-12T17:42:11.128Z,18.74
2023-05-12T17:44:37.838Z,18.72
2023-05-12T17:47:05.073Z,18.45
2023-05-12T17:49:31.814Z,18.37
2023-05-12T17:51:58.497Z,18.42
2023-05-12T17:54:25.222Z,18.21
2023-05-12T17:56:51.981Z,18.23
2023-05-12T17:59:18.639Z,18.31
2023-05-12T18:01:45.312Z,18.34
2023-05-12T18:04:12.112Z,18.14
2023-05-12T18:06:38.784Z,18.08
2023-05-12T18:09:06.800Z,18.09
2023-05-12T18:11:34.330Z,18.02
2023-05-12T18:14:05.674Z,18.10
2023-05-12T18:16:33.333Z,17.96
2023-05-12T18:19:00.608Z,17.89
2023-05-12T18:21:27.435Z,17.84
2023-05-12T18:23:54.167Z,17.84
2023-05-12T18:26:21.186Z,17.79
2023-05-12T18:28:47.946Z,17.79
2023-05-12T18:31:16.193Z,17.40
2023-05-12T18:33:46.845Z,17.35
2023-05-12T18:36:13.644Z,17.10
2023-05-12T18:38:40.514Z,17.23
2023-05-12T18:41:07.559Z,17.24
2023-05-12T18:43:34.937Z,17.16
2023-05-12T18:46:02.573Z,17.05
2023-05-12T18:48:29.814Z,16.81
2023-05-12T18:50:56.782Z,16.71
2023-05-12T18:53:23.480Z,16.70
2023-05-12T18:55:52.578Z,16.51
2023-05-12T18:58:19.342Z,16.42
2023-05-12T19:00:46.053Z,16.49
2023-05-12T19:03:12.955Z,16.34
2023-05-12T19:05:44.521Z,16.27
2023-05-12T19:08:11.501Z,16.10
2023-05-12T19:10:39.986Z,16.09
2023-05-12T19:13:09.626Z,15.98
2023-05-12T19:15:36.404Z,15.83
2023-05-12T19:18:03.221Z,15.73
2023-05-12T19:20:31.008Z,15.71
2023-05-12T19:22:59.754Z,15.56
2023-05-12T19:25:26.536Z,15.63
2023-05-12T19:27:53.534Z,15.43
2023-05-12T19:30:20.888Z,15.35
2023-05-12T19:32:47.681Z,15.34
2023-05-12T19:35:15.028Z,15.22
2023-05-12T19:37:41.914Z,15.15
2023-05-12T19:40:09.334Z,15.20
2023-05-12T19:42:38.007Z,15.13
2023-05-12T19:45:05.489Z,15.03
2023-05-12T19:47:33.354Z,15.03
2023-05-12T19:50:01.043Z,14.96
2023-05-12T19:52:31.024Z,14.85
2023-05-12T19:54:57.823Z,15.06
2023-05-12T19:57:24.520Z,14.93
2023-05-12T19:59:51.367Z,14.81
2023-05-12T20:02:18.317Z,14.81
2023-05-12T20:04:45.333Z,14.73
2023-05-12T20:07:12.394Z,14.66
2023-05-12T20:09:39.226Z,14.69
2023-05-12T20:12:08.032Z,14.65
2023-05-12T20:14:38.619Z,14.57
2023-05-12T20:17:06.570Z,14.49
2023-05-12T20:19:33.726Z,14.43
2023-05-12T20:22:00.538Z,14.45
2023-05-12T20:24:27.632Z,14.35
2023-05-12T20:26:54.824Z,14.33
2023-05-12T20:29:21.700Z,14.34
2023-05-12T20:31:49.572Z,14.38
2023-05-12T20:34:17.035Z,14.20
2023-05-12T20:36:44.915Z,14.18
2023-05-12T20:39:13.542Z,14.26
2023-05-12T20:41:41.814Z,14.18
2023-05-12T20:44:09.268Z,14.13
2023-05-12T20:46:38.232Z,14.03
2023-05-12T20:49:05.931Z,13.95
2023-05-12T20:51:32.776Z,14.04
2023-05-12T20:53:59.554Z,13.94
2023-05-12T20:56:26.940Z,13.89
2023-05-12T20:58:53.882Z,13.89
2023-05-12T21:01:20.751Z,13.72
2023-05-12T21:03:47.543Z,13.76
2023-05-12T21:06:14.594Z,13.76
2023-05-12T21:08:41.385Z,13.75
2023-05-12T21:11:18.422Z,13.69
2023-05-12T21:13:47.145Z,13.56
2023-05-12T21:16:14.844Z,13.43
2023-05-12T21:18:41.638Z,13.53
2023-05-12T21:21:08.323Z,13.33
2023-05-12T21:23:37.309Z,13.36
2023-05-12T21:26:04.746Z,13.35
2023-05-12T21:28:31.401Z,13.36
2023-05-12T21:30:58.110Z,13.38
2023-05-12T21:33:24.820Z,13.27
2023-05-12T21:35:51.552Z,13.23
2023-05-12T21:38:18.330Z,13.12
2023-05-12T21:40:49.018Z,13.36
2023-05-12T21:43:15.719Z,13.26
2023-05-12T21:45:42.352Z,13.07
2023-05-12T21:48:09.159Z,13.03
2023-05-12T21:50:35.831Z,12.89
2023-05-12T21:53:02.546Z,13.18
2023-05-12T21:55:29.200Z,12.83
2023-05-12T21:57:55.899Z,12.80
2023-05-12T22:00:22.851Z,12.58
2023-05-12T22:02:50.353Z,12.39
2023-05-12T22:05:17.046Z,12.33
2023-05-12T22:07:44.016Z,12.34
2023-05-12T22:10:10.818Z,12.56
2023-05-12T22:12:37.967Z,12.21
2023-05-12T22:15:05.222Z,12.15
2023-05-12T22:17:31.934Z,12.10
2023-05-12T22:19:58.621Z,12.15
2023-05-12T22:22:25.372Z,12.13
2023-05-12T22:24:52.033Z,12.23
2023-05-12T22:27:22.063Z,12.16
2023-05-12T22:29:49.153Z,11.98
2023-05-12T22:32:15.804Z,11.92
2023-05-12T22:34:42.572Z,11.81
2023-05-12T22:37:09.263Z,11.86
2023-05-12T22:39:35.966Z,11.78
2023-05-12T22:42:03.264Z,11.75
2023-05-12T22:44:30.132Z,11.65
2023-05-12T22:46:57.049Z,11.59
2023-05-12T22:49:24.131Z,11.47
2023-05-12T22:51:50.770Z,11.48
2023-05-12T22:54:17.424Z,11.29
2023-05-12T22:56:44.757Z,11.22
2023-05-12T22:59:11.577Z,11.16
2023-05-12T23:01:38.287Z,11.06
2023-05-12T23:04:05.697Z,11.01
2023-05-12T23:06:32.656Z,11.00
2023-05-12T23:08:59.416Z,11.03
2023-05-12T23:11:26.308Z,11.03
2023-05-12T23:13:53.036Z,11.03
2023-05-12T23:16:19.790Z,10.96
2023-05-12T23:18:46.497Z,11.00
2023-05-12T23:21:13.102Z,10.82
2023-05-12T23:23:39.751Z,10.79
2023-05-12T23:26:06.472Z,10.77
2023-05-12T23:28:33.138Z,10.83
2023-05-12T23:30:59.913Z,10.81
2023-05-12T23:33:26.917Z,10.74
2023-05-12T23:35:53.730Z,10.80
2023-05-12T23:38:20.912Z,10.78
2023-05-12T23:40:47.617Z,10.86
2023-05-12T23:43:14.263Z,10.85
2023-05-12T23:45:46.329Z,10.86
2023-05-12T23:48:13.069Z,10.85
2023-05-12T23:50:39.787Z,10.91
2023-05-12T23:53:06.534Z,10.92
2023-05-12T23:55:33.316Z,10.92
2023-05-12T23:58:00.065Z,10.89
